To NAV CANADA Home Page Login to a new session Search on AWWS site Feedback and Comments Disclaimer Vers la page française équivalente Tips FAQ What's new on the site To the Forecasts and Observations / NOTAM section To "File a Flight Plan" website Publications and other links Update of the User's profile FIC Telephone Numbers My Weather Data Folder Route Weather Data Regional Weather Data Local Weather Data To the Forecasts and Observations / NOTAM section
Request Generated 04/24/2014 at 22:45:56 UTC . Weather information available at that time is displayed.

METAR/TAF

CAPE DORSET/NU    

SPECI CYTE 242223Z AUTO 26012KT 7SM -SN OVC015 M11/M13 A3030 RMK
SLP265=
SPECI CYTE 242213Z AUTO 26009G15KT 5SM -SN OVC015 M11/M13 A3029 RMK
SLP264=
METAR CYTE 242200Z AUTO 26009KT 6SM -SN OVC015 M11/M13 A3029 RMK
SLP263=
SPECI CYTE 242151Z AUTO 25008G16KT 6SM -SN OVC015 M10/M14 A3029 RMK
SLP262=
SPECI CYTE 242141Z AUTO 25009KT 5SM -SN OVC015 M10/M13 A3029 RMK
SLP262=
METAR CYTE 242100Z AUTO 26008G15KT 8SM -SN OVC015 M10/M13 A3029 RMK
SLP262=
SPECI CYTE 242015Z AUTO 27012KT 6SM -SN OVC013 M11/M14 A3029 RMK
SLP262=
METAR CYTE 242000Z AUTO 25008KT 3SM -SN OVC013 M10/M13 A3029 RMK
SLP263=

TAF CYTE 241838Z 2419/2507 23010KT 5SM -SN OVC015 TEMPO 2419/2507
P6SM NSW SCT015
RMK FCST BASED ON AUTO OBS. NXT FCST BY 250100Z=
Your time UTC time
Weather data provided by Environment Canada and NAV CANADA